Time;durP1;ratioP1;P1;durP2;ratioP2;P2;SDS_P1;SDS_P2;PMS_P1;PMS_P2;Temp;Humidity;BMP_temperature;BMP_pressure;BME280_temperature;BME280_humidity;BME280_pressure;Samples;Min_cycle;Max_cycle;Signal;HPM_P1;HPM_P2
2022/09/17 00:00:53;;;;;;;5.43;3.95;;;;;;;;;;5034118;28;20653;-48
2022/09/17 00:03:28;;;;;;;5.63;3.80;;;;;;;;;;5034217;28;20201;-51
2022/09/17 00:06:00;;;;;;;7.20;4.32;;;;;;;;;;5035017;28;20220;-50
2022/09/17 00:08:27;;;;;;;9.05;3.90;;;;;;;;;;5034528;28;20232;-50
2022/09/17 00:10:54;;;;;;;6.85;3.95;;;;;;;;;;5036237;28;20228;-52
2022/09/17 00:13:22;;;;;;;7.80;3.83;;;;;;;;;;5053097;28;20212;-48
2022/09/17 00:15:51;;;;;;;5.47;3.97;;;;;;;;;;5037678;28;20311;-51
2022/09/17 00:18:18;;;;;;;6.63;4.18;;;;;;;;;;5037705;28;20201;-52
2022/09/17 00:20:46;;;;;;;4.78;3.47;;;;;;;;;;5037700;28;20208;-52
2022/09/17 00:23:13;;;;;;;6.00;3.85;;;;;;;;;;5037612;28;20236;-49
2022/09/17 00:25:42;;;;;;;4.65;3.28;;;;;;;;;;5037602;28;20275;-48
2022/09/17 00:28:10;;;;;;;7.38;4.50;;;;;;;;;;5037585;28;20250;-49
2022/09/17 00:30:42;;;;;;;8.45;4.45;;;;;;;;;;5053088;28;20252;-50
2022/09/17 00:33:15;;;;;;;6.60;4.00;;;;;;;;;;5037492;28;20200;-49
2022/09/17 00:35:42;;;;;;;5.00;4.00;;;;;;;;;;5037215;28;20355;-50
2022/09/17 00:38:10;;;;;;;7.35;4.05;;;;;;;;;;5037134;28;20205;-50
2022/09/17 00:40:37;;;;;;;5.32;4.03;;;;;;;;;;5037317;28;20208;-50
2022/09/17 00:43:10;;;;;;;6.03;4.03;;;;;;;;;;5037219;28;20212;-48
2022/09/17 00:45:37;;;;;;;9.07;4.22;;;;;;;;;;5041546;28;20285;-52
2022/09/17 00:48:06;;;;;;;6.97;4.43;;;;;;;;;;5057016;28;20207;-51
2022/09/17 00:50:39;;;;;;;8.60;4.63;;;;;;;;;;5057120;28;20246;-51
2022/09/17 00:53:09;;;;;;;5.90;4.13;;;;;;;;;;5056264;28;20211;-50
2022/09/17 00:55:38;;;;;;;6.70;3.97;;;;;;;;;;5055712;28;20223;-52
2022/09/17 00:58:07;;;;;;;5.57;3.78;;;;;;;;;;5056265;28;20200;-51
2022/09/17 01:00:35;;;;;;;4.50;3.42;;;;;;;;;;5056297;28;20294;-51
2022/09/17 01:03:02;;;;;;;5.63;3.40;;;;;;;;;;5056269;28;20553;-49
2022/09/17 01:05:38;;;;;;;8.38;4.32;;;;;;;;;;5056766;28;20257;-52
2022/09/17 01:08:36;;;;;;;6.63;3.75;;;;;;;;;;5056775;28;20204;-51
2022/09/17 01:11:22;;;;;;;7.32;3.95;;;;;;;;;;5056721;28;20222;-48
2022/09/17 01:14:11;;;;;;;8.60;4.03;;;;;;;;;;5053503;28;20557;-48
2022/09/17 01:17:21;;;;;;;8.18;3.97;;;;;;;;;;5042843;28;20250;-51
2022/09/17 01:20:30;;;;;;;7.53;3.83;;;;;;;;;;5046847;28;20203;-50
2022/09/17 01:23:30;;;;;;;6.25;3.80;;;;;;;;;;5055784;28;20220;-49
2022/09/17 01:26:03;;;;;;;10.45;3.70;;;;;;;;;;5034605;28;20208;-49
2022/09/17 01:28:33;;;;;;;7.25;3.78;;;;;;;;;;5018397;28;20208;-48
2022/09/17 01:31:08;;;;;;;5.20;3.97;;;;;;;;;;5034721;28;20209;-48
2022/09/17 01:33:51;;;;;;;7.30;4.13;;;;;;;;;;5017821;28;20204;-49
2022/09/17 01:36:49;;;;;;;6.00;4.05;;;;;;;;;;5034648;28;20233;-47
2022/09/17 01:39:43;;;;;;;11.30;3.72;;;;;;;;;;5018237;28;20255;-47
2022/09/17 01:42:30;;;;;;;5.65;3.67;;;;;;;;;;5018000;28;20209;-48
2022/09/17 01:45:03;;;;;;;5.78;3.60;;;;;;;;;;5034375;28;20212;-49
2022/09/17 01:47:44;;;;;;;4.50;3.50;;;;;;;;;;5034393;28;20291;-52
2022/09/17 01:50:16;;;;;;;6.30;3.75;;;;;;;;;;5034217;28;20224;-52
2022/09/17 01:52:45;;;;;;;4.57;3.50;;;;;;;;;;5034448;28;20213;-49
2022/09/17 01:55:14;;;;;;;5.47;3.50;;;;;;;;;;5034056;28;20220;-53
2022/09/17 01:57:48;;;;;;;4.78;3.35;;;;;;;;;;5033970;28;20204;-50
2022/09/17 02:00:16;;;;;;;6.03;3.63;;;;;;;;;;5034216;28;20650;-47
2022/09/17 02:02:49;;;;;;;5.30;3.42;;;;;;;;;;5054115;28;20207;-52
2022/09/17 02:05:21;;;;;;;7.45;3.92;;;;;;;;;;5054853;28;20283;-50
2022/09/17 02:08:02;;;;;;;6.65;3.72;;;;;;;;;;5054767;28;20261;-49
2022/09/17 02:10:33;;;;;;;6.90;3.55;;;;;;;;;;5054697;28;20200;-50
2022/09/17 02:13:07;;;;;;;4.47;3.60;;;;;;;;;;5054846;28;20204;-47
2022/09/17 02:15:37;;;;;;;6.60;4.00;;;;;;;;;;5055892;28;20235;-48
2022/09/17 02:18:18;;;;;;;6.10;3.85;;;;;;;;;;5054622;28;20700;-50
2022/09/17 02:20:52;;;;;;;6.43;4.50;;;;;;;;;;5054710;28;20258;-49
2022/09/17 02:23:24;;;;;;;6.85;4.18;;;;;;;;;;5054285;28;20223;-49
2022/09/17 02:25:56;;;;;;;8.38;5.13;;;;;;;;;;5055272;28;20549;-49
2022/09/17 02:28:35;;;;;;;8.13;5.43;;;;;;;;;;5055458;28;20555;-49
2022/09/17 02:31:02;;;;;;;6.57;5.13;;;;;;;;;;5053964;28;20211;-47
2022/09/17 02:33:30;;;;;;;10.23;5.90;;;;;;;;;;5054533;28;20200;-53
2022/09/17 02:35:57;;;;;;;7.72;5.43;;;;;;;;;;5054215;28;20675;-50
2022/09/17 02:38:25;;;;;;;6.72;4.95;;;;;;;;;;5055427;28;20234;-52
2022/09/17 02:41:17;;;;;;;6.25;4.70;;;;;;;;;;5055490;28;20211;-49
2022/09/17 02:44:07;;;;;;;5.95;4.75;;;;;;;;;;5054917;28;20212;-51
2022/09/17 02:46:56;;;;;;;5.95;4.68;;;;;;;;;;5054719;28;20285;-52
2022/09/17 02:49:35;;;;;;;8.05;4.95;;;;;;;;;;5055348;28;20233;-50
2022/09/17 02:52:35;;;;;;;6.90;4.43;;;;;;;;;;5053983;28;20254;-49
2022/09/17 02:55:17;;;;;;;8.63;4.70;;;;;;;;;;5054892;28;20226;-48
2022/09/17 02:57:53;;;;;;;7.55;4.60;;;;;;;;;;5055229;28;20192;-48
2022/09/17 03:00:22;;;;;;;6.68;4.55;;;;;;;;;;5054242;28;20238;-49
2022/09/17 03:03:06;;;;;;;7.38;4.80;;;;;;;;;;5054849;28;20204;-48
2022/09/17 03:05:35;;;;;;;8.40;4.93;;;;;;;;;;5054476;28;20212;-48
2022/09/17 03:08:02;;;;;;;8.32;4.80;;;;;;;;;;5054854;28;20298;-49
2022/09/17 03:10:32;;;;;;;8.48;4.80;;;;;;;;;;5054142;28;20249;-52
2022/09/17 03:12:59;;;;;;;7.00;4.20;;;;;;;;;;5054764;28;20600;-51
2022/09/17 03:15:27;;;;;;;6.05;4.28;;;;;;;;;;5054600;28;20306;-49
2022/09/17 03:17:54;;;;;;;6.50;4.15;;;;;;;;;;5054430;28;20706;-49
2022/09/17 03:20:21;;;;;;;5.70;3.90;;;;;;;;;;5054676;28;20203;-48
2022/09/17 03:22:48;;;;;;;6.80;3.50;;;;;;;;;;5054795;28;20204;-48
2022/09/17 03:25:15;;;;;;;6.25;4.30;;;;;;;;;;5069783;28;20214;-50
2022/09/17 03:27:42;;;;;;;6.13;3.83;;;;;;;;;;5054313;28;20294;-51
2022/09/17 03:30:09;;;;;;;6.45;3.78;;;;;;;;;;5054574;28;20228;-50
2022/09/17 03:32:35;;;;;;;9.10;3.83;;;;;;;;;;5055085;28;20290;-50
2022/09/17 03:35:03;;;;;;;8.73;3.67;;;;;;;;;;5054406;28;20235;-48
2022/09/17 03:37:30;;;;;;;6.03;4.18;;;;;;;;;;5054662;28;20208;-51
2022/09/17 03:39:59;;;;;;;7.18;4.03;;;;;;;;;;5054412;28;20204;-50
2022/09/17 03:42:26;;;;;;;6.28;3.75;;;;;;;;;;5054460;28;20204;-52
2022/09/17 03:44:53;;;;;;;5.47;3.47;;;;;;;;;;5054440;28;20232;-52
2022/09/17 03:47:20;;;;;;;5.35;3.58;;;;;;;;;;5058479;28;20282;-49
2022/09/17 03:49:47;;;;;;;5.05;3.58;;;;;;;;;;5057995;28;20204;-52
2022/09/17 03:52:14;;;;;;;8.95;3.90;;;;;;;;;;5055266;28;20239;-56
2022/09/17 03:54:41;;;;;;;5.18;3.10;;;;;;;;;;5051922;28;20218;-51
2022/09/17 03:57:08;;;;;;;6.28;3.60;;;;;;;;;;5056226;28;20629;-52
2022/09/17 03:59:35;;;;;;;4.75;3.55;;;;;;;;;;5056720;28;20547;-56
2022/09/17 04:02:02;;;;;;;3.95;3.08;;;;;;;;;;5056299;28;20215;-53
2022/09/17 04:04:30;;;;;;;7.10;3.35;;;;;;;;;;5056383;28;20695;-50
2022/09/17 04:06:56;;;;;;;5.57;3.40;;;;;;;;;;5046634;28;20205;-55
2022/09/17 04:09:24;;;;;;;7.85;3.63;;;;;;;;;;5050759;28;20204;-49
2022/09/17 04:11:52;;;;;;;10.57;4.05;;;;;;;;;;5053821;28;20208;-50
2022/09/17 04:14:19;;;;;;;6.68;3.40;;;;;;;;;;5047612;28;20209;-52
2022/09/17 04:16:46;;;;;;;6.70;3.22;;;;;;;;;;5049053;28;20601;-48
2022/09/17 04:19:13;;;;;;;6.43;3.40;;;;;;;;;;5053519;28;20288;-55
2022/09/17 04:21:40;;;;;;;9.25;3.60;;;;;;;;;;5054751;28;20258;-56
2022/09/17 04:24:07;;;;;;;4.85;3.28;;;;;;;;;;5053787;28;20200;-53
2022/09/17 04:26:34;;;;;;;3.97;3.33;;;;;;;;;;5055918;28;20197;-49
2022/09/17 04:29:02;;;;;;;5.43;3.40;;;;;;;;;;5054817;28;20269;-48
2022/09/17 04:31:29;;;;;;;6.22;3.10;;;;;;;;;;5055114;28;20633;-54
2022/09/17 04:33:56;;;;;;;4.70;3.13;;;;;;;;;;5055983;28;20207;-57
2022/09/17 04:36:24;;;;;;;5.20;3.25;;;;;;;;;;5055674;28;20239;-49
2022/09/17 04:38:50;;;;;;;6.00;3.20;;;;;;;;;;5055599;28;20214;-50
2022/09/17 04:41:18;;;;;;;6.25;3.03;;;;;;;;;;5055866;28;20629;-57
2022/09/17 04:43:45;;;;;;;5.25;3.13;;;;;;;;;;5055859;28;20620;-49
2022/09/17 04:46:13;;;;;;;6.47;3.28;;;;;;;;;;5035194;28;20799;-53
2022/09/17 04:48:40;;;;;;;5.70;3.30;;;;;;;;;;5035943;28;20240;-52
2022/09/17 04:51:07;;;;;;;4.38;2.80;;;;;;;;;;5037841;28;20227;-53
2022/09/17 04:53:34;;;;;;;6.07;3.28;;;;;;;;;;5056338;28;20262;-52
2022/09/17 04:56:01;;;;;;;7.25;3.13;;;;;;;;;;5055259;28;20243;-52
2022/09/17 04:58:31;;;;;;;4.57;3.20;;;;;;;;;;5056097;28;20231;-51
2022/09/17 05:00:58;;;;;;;7.85;2.97;;;;;;;;;;5055823;28;20224;-49
2022/09/17 05:03:25;;;;;;;5.45;3.20;;;;;;;;;;5055949;28;20300;-48
2022/09/17 05:05:52;;;;;;;5.50;2.85;;;;;;;;;;5055525;28;20254;-52
2022/09/17 05:08:21;;;;;;;5.47;3.03;;;;;;;;;;5055791;28;20255;-54
2022/09/17 05:10:50;;;;;;;4.50;3.15;;;;;;;;;;5054062;28;20673;-48
2022/09/17 05:13:17;;;;;;;5.20;3.20;;;;;;;;;;5055231;28;20568;-49
2022/09/17 05:15:44;;;;;;;6.85;3.65;;;;;;;;;;5055228;28;20239;-48
2022/09/17 05:18:12;;;;;;;6.70;3.42;;;;;;;;;;5055289;28;20228;-55
2022/09/17 05:20:38;;;;;;;7.35;3.20;;;;;;;;;;5054328;28;20228;-49
2022/09/17 05:23:05;;;;;;;5.60;3.40;;;;;;;;;;5070526;28;20251;-50
2022/09/17 05:25:32;;;;;;;3.58;3.13;;;;;;;;;;5037479;28;20570;-54
2022/09/17 05:28:00;;;;;;;5.93;3.50;;;;;;;;;;5055402;28;20293;-53
2022/09/17 05:30:27;;;;;;;6.85;3.75;;;;;;;;;;5055191;28;20220;-50
2022/09/17 05:33:01;;;;;;;6.80;3.30;;;;;;;;;;5055564;28;20224;-51
2022/09/17 05:35:30;;;;;;;8.23;4.10;;;;;;;;;;5055599;28;20310;-53
2022/09/17 05:38:02;;;;;;;5.35;3.85;;;;;;;;;;5055027;28;20311;-48
2022/09/17 05:40:31;;;;;;;5.35;3.30;;;;;;;;;;5053372;28;20278;-50
2022/09/17 05:43:00;;;;;;;5.90;3.45;;;;;;;;;;5054707;28;20220;-50
2022/09/17 05:45:28;;;;;;;5.63;3.78;;;;;;;;;;5054900;28;20232;-50
2022/09/17 05:47:59;;;;;;;5.30;3.30;;;;;;;;;;5055128;28;20236;-48
2022/09/17 05:50:27;;;;;;;5.13;3.70;;;;;;;;;;5055238;28;20232;-53
2022/09/17 05:52:55;;;;;;;4.18;3.40;;;;;;;;;;5055056;28;20220;-50
2022/09/17 05:55:23;;;;;;;6.40;3.70;;;;;;;;;;5054440;28;20303;-49
2022/09/17 05:57:50;;;;;;;5.70;3.58;;;;;;;;;;5053548;28;20227;-52
2022/09/17 06:00:17;;;;;;;5.20;3.35;;;;;;;;;;5050478;28;20552;-48
2022/09/17 06:02:44;;;;;;;5.60;3.47;;;;;;;;;;5053759;28;20537;-51
2022/09/17 06:05:11;;;;;;;9.13;4.47;;;;;;;;;;5048550;28;20232;-49
2022/09/17 06:07:38;;;;;;;8.85;4.05;;;;;;;;;;5053050;28;20583;-49
2022/09/17 06:10:07;;;;;;;7.68;4.00;;;;;;;;;;5053076;28;20224;-49
2022/09/17 06:12:34;;;;;;;9.25;3.90;;;;;;;;;;5053373;28;20232;-50
2022/09/17 06:15:03;;;;;;;7.03;3.72;;;;;;;;;;5052929;28;20311;-52
2022/09/17 06:17:34;;;;;;;5.70;3.40;;;;;;;;;;5052096;28;20682;-48
2022/09/17 06:20:02;;;;;;;5.38;3.63;;;;;;;;;;5044622;28;20251;-50
2022/09/17 06:22:29;;;;;;;6.18;3.67;;;;;;;;;;5054507;28;20238;-53
2022/09/17 06:24:55;;;;;;;9.38;3.75;;;;;;;;;;5054747;28;20704;-49
2022/09/17 06:27:22;;;;;;;6.32;3.60;;;;;;;;;;5053697;28;20631;-51
2022/09/17 06:29:49;;;;;;;7.85;3.67;;;;;;;;;;5052559;28;20219;-48
2022/09/17 06:32:16;;;;;;;5.72;3.30;;;;;;;;;;5052514;28;20723;-49
2022/09/17 06:34:43;;;;;;;6.65;3.67;;;;;;;;;;5052013;28;20227;-54
2022/09/17 06:37:10;;;;;;;6.35;3.30;;;;;;;;;;5049973;28;20247;-50
2022/09/17 06:39:37;;;;;;;5.45;3.30;;;;;;;;;;5052744;28;20534;-48
2022/09/17 06:42:05;;;;;;;6.07;4.10;;;;;;;;;;5053467;28;20232;-50
2022/09/17 06:44:31;;;;;;;6.07;4.00;;;;;;;;;;5054682;28;20288;-49
2022/09/17 06:46:58;;;;;;;7.07;4.05;;;;;;;;;;5055132;28;20751;-53
2022/09/17 06:49:26;;;;;;;5.90;3.58;;;;;;;;;;5053637;28;20215;-49
2022/09/17 06:51:52;;;;;;;5.57;3.67;;;;;;;;;;5054776;28;20238;-51
2022/09/17 06:54:19;;;;;;;5.60;3.83;;;;;;;;;;5053041;28;20625;-53
2022/09/17 06:56:46;;;;;;;7.13;3.25;;;;;;;;;;5052707;28;20805;-49
2022/09/17 06:59:13;;;;;;;4.05;3.10;;;;;;;;;;5052972;28;20620;-54
2022/09/17 07:01:40;;;;;;;7.60;3.58;;;;;;;;;;5053014;28;20214;-49
2022/09/17 07:04:07;;;;;;;5.20;3.42;;;;;;;;;;5053181;28;20274;-50
2022/09/17 07:06:34;;;;;;;4.20;3.22;;;;;;;;;;5052662;28;20261;-48
2022/09/17 07:09:01;;;;;;;4.28;3.33;;;;;;;;;;5054197;28;20208;-50
2022/09/17 07:11:30;;;;;;;5.82;3.45;;;;;;;;;;5054914;28;20720;-49
2022/09/17 07:13:57;;;;;;;5.82;3.50;;;;;;;;;;5054732;28;20294;-48
2022/09/17 07:16:25;;;;;;;5.80;3.55;;;;;;;;;;5054706;28;20224;-50
2022/09/17 07:18:52;;;;;;;5.38;3.20;;;;;;;;;;5055455;28;20208;-49
2022/09/17 07:21:19;;;;;;;6.05;3.30;;;;;;;;;;5058636;28;20204;-54
2022/09/17 07:23:46;;;;;;;6.35;3.50;;;;;;;;;;5058688;28;20237;-48
2022/09/17 07:26:14;;;;;;;5.35;3.20;;;;;;;;;;5058643;28;20223;-55
2022/09/17 07:28:42;;;;;;;5.70;3.50;;;;;;;;;;5058766;28;20235;-51
2022/09/17 07:31:10;;;;;;;3.80;3.20;;;;;;;;;;5058768;28;20333;-48
2022/09/17 07:33:43;;;;;;;5.50;3.15;;;;;;;;;;5059021;28;20231;-48
2022/09/17 07:36:11;;;;;;;8.77;3.13;;;;;;;;;;5058485;28;20305;-49
2022/09/17 07:38:38;;;;;;;6.50;2.80;;;;;;;;;;5058408;28;20207;-48
2022/09/17 07:41:11;;;;;;;7.35;2.90;;;;;;;;;;5058388;28;20656;-49
2022/09/17 07:43:39;;;;;;;4.68;3.10;;;;;;;;;;5058432;28;20208;-48
2022/09/17 07:46:07;;;;;;;5.53;3.00;;;;;;;;;;5057987;28;20267;-55
2022/09/17 07:48:34;;;;;;;11.13;3.17;;;;;;;;;;5057517;28;20199;-49
2022/09/17 07:51:01;;;;;;;7.05;3.42;;;;;;;;;;5058164;28;20204;-48
2022/09/17 07:53:28;;;;;;;3.08;2.70;;;;;;;;;;5058092;28;20208;-48
2022/09/17 07:55:59;;;;;;;5.03;3.40;;;;;;;;;;5058249;28;20681;-49
2022/09/17 07:58:32;;;;;;;4.28;2.67;;;;;;;;;;5058110;28;20200;-53
2022/09/17 08:01:05;;;;;;;7.10;3.45;;;;;;;;;;5058052;28;20553;-49
2022/09/17 08:03:33;;;;;;;4.03;3.05;;;;;;;;;;5058275;28;20200;-48
2022/09/17 08:06:12;;;;;;;4.72;2.97;;;;;;;;;;5057898;28;20214;-51
2022/09/17 08:08:39;;;;;;;6.10;2.60;;;;;;;;;;5057964;28;20299;-54
2022/09/17 08:11:11;;;;;;;6.45;2.90;;;;;;;;;;5057775;28;20212;-56
2022/09/17 08:13:39;;;;;;;5.63;2.75;;;;;;;;;;5057560;28;20275;-53
2022/09/17 08:16:08;;;;;;;5.20;2.55;;;;;;;;;;5057694;28;20208;-50
2022/09/17 08:18:35;;;;;;;5.50;2.45;;;;;;;;;;5057663;28;20219;-49
2022/09/17 08:21:04;;;;;;;6.45;2.50;;;;;;;;;;5057630;28;20255;-49
2022/09/17 08:23:34;;;;;;;5.18;2.53;;;;;;;;;;5057544;28;20235;-49
2022/09/17 08:26:01;;;;;;;6.07;2.20;;;;;;;;;;5057865;28;20208;-50
2022/09/17 08:28:29;;;;;;;3.70;2.15;;;;;;;;;;5057979;28;20235;-49
2022/09/17 08:31:04;;;;;;;5.57;2.30;;;;;;;;;;5056830;28;20200;-53
2022/09/17 08:33:34;;;;;;;4.55;2.35;;;;;;;;;;5057923;28;20192;-49
2022/09/17 08:36:01;;;;;;;7.63;2.45;;;;;;;;;;5057349;28;20238;-50
2022/09/17 08:38:30;;;;;;;5.90;2.10;;;;;;;;;;5057294;28;20207;-54
2022/09/17 08:41:17;;;;;;;3.47;2.00;;;;;;;;;;5057710;28;20212;-49
2022/09/17 08:44:24;;;;;;;5.78;2.10;;;;;;;;;;5056444;28;20212;-47
2022/09/17 08:46:57;;;;;;;3.97;2.08;;;;;;;;;;5056297;28;20246;-49
2022/09/17 08:49:35;;;;;;;7.95;2.13;;;;;;;;;;5056666;28;20204;-48
2022/09/17 08:52:11;;;;;;;4.53;1.80;;;;;;;;;;5057407;28;20586;-50
2022/09/17 08:54:53;;;;;;;6.28;2.10;;;;;;;;;;5056897;28;20208;-53
2022/09/17 08:57:44;;;;;;;4.75;1.70;;;;;;;;;;5057550;28;20232;-49
2022/09/17 09:00:17;;;;;;;5.45;2.20;;;;;;;;;;5056920;28;20234;-50
2022/09/17 09:03:02;;;;;;;6.03;2.20;;;;;;;;;;5057119;28;20261;-50
2022/09/17 09:05:42;;;;;;;8.02;2.20;;;;;;;;;;5049971;28;20594;-49
2022/09/17 09:08:35;;;;;;;5.15;2.00;;;;;;;;;;5036062;28;20211;-56
2022/09/17 09:11:12;;;;;;;4.38;2.03;;;;;;;;;;5035050;28;20262;-47
2022/09/17 09:13:42;;;;;;;3.65;1.90;;;;;;;;;;5035591;28;20208;-48
2022/09/17 09:16:19;;;;;;;4.20;2.20;;;;;;;;;;5035910;28;20196;-48
2022/09/17 09:18:50;;;;;;;3.15;1.95;;;;;;;;;;5036449;28;20652;-50
2022/09/17 09:21:56;;;;;;;3.70;1.70;;;;;;;;;;5045921;28;20234;-50
2022/09/17 09:24:25;;;;;;;3.35;1.70;;;;;;;;;;5054813;28;20243;-47
2022/09/17 09:27:21;;;;;;;3.83;2.13;;;;;;;;;;5053279;28;20318;-50
2022/09/17 09:30:22;;;;;;;6.55;1.80;;;;;;;;;;5053214;28;20266;-46
2022/09/17 09:32:52;;;;;;;6.35;1.90;;;;;;;;;;5070372;28;20311;-48
2022/09/17 09:35:26;;;;;;;3.70;1.88;;;;;;;;;;5050083;28;20235;-47
2022/09/17 09:37:58;;;;;;;7.07;1.88;;;;;;;;;;5054348;28;20231;-47
2022/09/17 09:40:36;;;;;;;4.28;1.83;;;;;;;;;;5031627;28;20270;-56
2022/09/17 09:43:14;;;;;;;3.80;1.50;;;;;;;;;;5036675;28;20232;-55
2022/09/17 09:45:53;;;;;;;4.82;1.35;;;;;;;;;;5034064;28;20267;-57
2022/09/17 09:48:58;;;;;;;4.90;1.25;;;;;;;;;;5050992;28;20722;-56
2022/09/17 09:52:22;;;;;;;5.07;1.38;;;;;;;;;;5053644;28;20223;-57
2022/09/17 09:55:28;;;;;;;3.47;1.08;;;;;;;;;;5045561;28;20305;-57
2022/09/17 09:58:03;;;;;;;6.25;1.42;;;;;;;;;;5017053;28;20356;-57
2022/09/17 10:00:37;;;;;;;3.95;1.15;;;;;;;;;;5050552;28;20199;-55
2022/09/17 10:03:21;;;;;;;4.10;1.40;;;;;;;;;;5046656;28;20200;-55
2022/09/17 10:06:11;;;;;;;6.07;1.50;;;;;;;;;;5051413;28;20188;-55
2022/09/17 10:08:40;;;;;;;4.90;1.45;;;;;;;;;;5050952;28;20506;-55
2022/09/17 10:11:10;;;;;;;10.05;1.40;;;;;;;;;;5053037;28;20303;-53
2022/09/17 10:13:37;;;;;;;3.33;1.40;;;;;;;;;;5054253;28;20287;-56
2022/09/17 10:16:18;;;;;;;7.82;1.70;;;;;;;;;;5053908;28;20274;-54
2022/09/17 10:18:47;;;;;;;6.60;1.50;;;;;;;;;;5052312;28;20211;-56
2022/09/17 10:21:34;;;;;;;9.65;1.48;;;;;;;;;;5052676;28;20625;-56
2022/09/17 10:24:03;;;;;;;6.15;1.20;;;;;;;;;;5051812;28;20279;-54
2022/09/17 10:26:32;;;;;;;7.00;2.05;;;;;;;;;;5053716;28;20574;-55
2022/09/17 10:29:01;;;;;;;7.18;1.95;;;;;;;;;;5050235;28;20567;-63
2022/09/17 10:31:47;;;;;;;7.47;1.33;;;;;;;;;;5051962;28;20223;-63
2022/09/17 10:34:32;;;;;;;4.45;1.02;;;;;;;;;;5052807;28;20258;-62
2022/09/17 10:36:59;;;;;;;7.00;1.23;;;;;;;;;;5052802;28;20273;-62
2022/09/17 10:39:32;;;;;;;4.85;1.38;;;;;;;;;;5053835;28;20204;-61
2022/09/17 10:42:02;;;;;;;6.50;1.52;;;;;;;;;;5049873;28;20188;-61
2022/09/17 10:44:34;;;;;;;6.97;1.40;;;;;;;;;;5051980;28;20196;-61
2022/09/17 10:47:28;;;;;;;6.90;1.50;;;;;;;;;;5051804;28;20236;-62
2022/09/17 10:50:00;;;;;;;4.78;1.92;;;;;;;;;;5050901;28;20285;-62
2022/09/17 10:52:35;;;;;;;8.07;1.63;;;;;;;;;;5048900;28;20888;-62
2022/09/17 10:55:10;;;;;;;3.47;1.27;;;;;;;;;;5047985;28;20196;-61
2022/09/17 10:57:46;;;;;;;12.95;1.52;;;;;;;;;;5052711;28;20203;-62
2022/09/17 11:00:19;;;;;;;5.35;1.48;;;;;;;;;;5051868;28;20605;-62
2022/09/17 11:02:58;;;;;;;23.42;4.95;;;;;;;;;;5052061;28;20192;-62
2022/09/17 11:05:37;;;;;;;4.50;1.38;;;;;;;;;;5051231;28;20245;-62
2022/09/17 11:08:09;;;;;;;5.97;1.90;;;;;;;;;;5049536;28;20195;-62
2022/09/17 11:11:02;;;;;;;6.40;1.63;;;;;;;;;;5050513;28;20184;-62
2022/09/17 11:13:31;;;;;;;3.78;1.52;;;;;;;;;;5050947;28;20188;-62
2022/09/17 11:16:07;;;;;;;3.47;1.40;;;;;;;;;;5053586;28;20207;-62
2022/09/17 11:18:40;;;;;;;2.58;1.00;;;;;;;;;;5052988;28;20250;-63
2022/09/17 11:21:17;;;;;;;4.05;1.20;;;;;;;;;;5051226;28;20707;-64
2022/09/17 11:24:16;;;;;;;3.65;1.30;;;;;;;;;;5050286;28;20280;-62
2022/09/17 11:26:46;;;;;;;3.63;1.45;;;;;;;;;;5041915;28;20212;-61
2022/09/17 11:29:25;;;;;;;11.60;1.63;;;;;;;;;;5052176;28;20505;-62
2022/09/17 11:32:09;;;;;;;3.45;1.17;;;;;;;;;;5050298;28;20204;-62
2022/09/17 11:34:50;;;;;;;1.92;1.08;;;;;;;;;;5059652;28;20188;-62
2022/09/17 11:37:31;;;;;;;4.35;1.20;;;;;;;;;;5051185;28;20283;-62
2022/09/17 11:40:12;;;;;;;1.92;1.00;;;;;;;;;;5051043;28;20246;-62
2022/09/17 11:42:53;;;;;;;2.70;0.95;;;;;;;;;;5048630;28;20203;-62
2022/09/17 11:45:24;;;;;;;2.85;1.70;;;;;;;;;;5053552;28;20211;-61
2022/09/17 11:47:58;;;;;;;6.85;1.90;;;;;;;;;;5049793;28;20231;-61
2022/09/17 11:50:30;;;;;;;4.45;1.10;;;;;;;;;;5051914;28;20275;-61
2022/09/17 11:53:07;;;;;;;1.65;0.88;;;;;;;;;;5052547;28;20192;-61
2022/09/17 11:55:49;;;;;;;4.13;1.30;;;;;;;;;;5054034;28;20250;-62
2022/09/17 11:58:29;;;;;;;13.90;2.47;;;;;;;;;;5052492;28;20514;-61
2022/09/17 12:01:02;;;;;;;4.38;1.92;;;;;;;;;;5051350;28;20246;-61
2022/09/17 12:03:33;;;;;;;6.20;2.00;;;;;;;;;;5033620;28;20204;-61
2022/09/17 12:06:06;;;;;;;8.30;1.35;;;;;;;;;;5050387;28;20208;-61
2022/09/17 12:08:52;;;;;;;6.13;1.30;;;;;;;;;;5054438;28;20188;-61
2022/09/17 12:11:27;;;;;;;4.45;1.35;;;;;;;;;;5054087;28;20223;-61
2022/09/17 12:13:57;;;;;;;5.43;1.30;;;;;;;;;;5052600;28;20523;-61
2022/09/17 12:16:25;;;;;;;7.60;1.60;;;;;;;;;;5055537;28;20196;-61
2022/09/17 12:19:04;;;;;;;2.35;1.00;;;;;;;;;;5053079;28;20798;-61
2022/09/17 12:21:45;;;;;;;2.38;1.20;;;;;;;;;;5062141;28;20200;-61
2022/09/17 12:24:22;;;;;;;3.03;1.27;;;;;;;;;;5059469;28;20239;-62
2022/09/17 12:26:57;;;;;;;3.05;1.30;;;;;;;;;;5055895;28;20602;-61
2022/09/17 12:30:03;;;;;;;4.93;1.10;;;;;;;;;;5055205;28;20188;-59
2022/09/17 12:32:33;;;;;;;10.98;2.33;;;;;;;;;;5055358;28;20613;-59
2022/09/17 12:35:16;;;;;;;6.57;1.50;;;;;;;;;;5055521;28;20193;-60
2022/09/17 12:38:14;;;;;;;4.03;1.15;;;;;;;;;;5055105;28;20618;-58
2022/09/17 12:40:53;;;;;;;2.50;1.23;;;;;;;;;;5054247;28;20246;-59
2022/09/17 12:43:45;;;;;;;2.40;1.40;;;;;;;;;;5049116;28;20564;-59
2022/09/17 12:46:15;;;;;;;2.65;1.35;;;;;;;;;;5055138;28;20228;-61
2022/09/17 12:49:00;;;;;;;2.85;1.20;;;;;;;;;;5055741;28;20265;-60
2022/09/17 12:51:45;;;;;;;1.83;1.20;;;;;;;;;;5054505;28;20192;-60
2022/09/17 12:54:16;;;;;;;2.97;1.20;;;;;;;;;;5055326;28;20212;-59
2022/09/17 12:57:10;;;;;;;3.20;1.60;;;;;;;;;;5052911;28;20196;-60
2022/09/17 12:59:47;;;;;;;2.10;1.40;;;;;;;;;;5055272;28;20204;-59
2022/09/17 13:02:21;;;;;;;4.47;1.20;;;;;;;;;;5052406;28;20199;-61
2022/09/17 13:05:13;;;;;;;3.83;1.48;;;;;;;;;;5049837;28;20327;-61
2022/09/17 13:07:58;;;;;;;4.43;1.60;;;;;;;;;;5050525;28;20692;-59
2022/09/17 13:10:31;;;;;;;5.45;1.60;;;;;;;;;;5051499;28;20208;-60
2022/09/17 13:13:27;;;;;;;4.38;1.65;;;;;;;;;;5052088;28;20201;-59
2022/09/17 13:16:16;;;;;;;5.43;1.60;;;;;;;;;;5002754;28;20284;-61
2022/09/17 13:19:05;;;;;;;6.50;1.50;;;;;;;;;;5007040;28;20530;-60
2022/09/17 13:21:54;;;;;;;1.70;1.50;;;;;;;;;;5010005;28;20615;-61
2022/09/17 13:24:23;;;;;;;2.47;1.60;;;;;;;;;;5008248;28;20315;-59
2022/09/17 13:26:53;;;;;;;3.35;1.80;;;;;;;;;;4997370;28;20578;-60
2022/09/17 13:29:44;;;;;;;4.25;1.45;;;;;;;;;;5013099;28;20249;-59
2022/09/17 13:32:33;;;;;;;6.55;1.90;;;;;;;;;;5001868;28;20666;-61
2022/09/17 13:35:09;;;;;;;2.67;1.25;;;;;;;;;;5013415;28;20275;-60
2022/09/17 13:37:40;;;;;;;2.78;1.58;;;;;;;;;;5009560;28;20212;-60
2022/09/17 13:40:22;;;;;;;5.38;1.90;;;;;;;;;;5013371;28;20225;-59
2022/09/17 13:42:55;;;;;;;4.40;2.22;;;;;;;;;;5013838;28;20308;-60
2022/09/17 13:45:23;;;;;;;4.55;1.90;;;;;;;;;;4997658;28;20245;-60
2022/09/17 13:48:07;;;;;;;5.40;1.92;;;;;;;;;;4996883;28;20721;-61
2022/09/17 13:50:43;;;;;;;3.58;2.47;;;;;;;;;;4994796;28;20233;-59
2022/09/17 13:53:15;;;;;;;7.30;3.25;;;;;;;;;;5039555;28;20231;-60
2022/09/17 13:55:50;;;;;;;5.30;3.63;;;;;;;;;;5054644;28;20223;-60
2022/09/17 13:58:17;;;;;;;4.35;3.03;;;;;;;;;;5054505;28;20239;-56
2022/09/17 14:01:04;;;;;;;5.40;3.65;;;;;;;;;;5054219;28;20252;-55
2022/09/17 14:03:36;;;;;;;6.85;3.47;;;;;;;;;;5052304;28;20228;-54
2022/09/17 14:06:13;;;;;;;6.22;3.42;;;;;;;;;;5052593;28;20593;-60
2022/09/17 14:08:44;;;;;;;4.40;3.08;;;;;;;;;;5050989;28;20204;-60
2022/09/17 14:11:27;;;;;;;5.07;3.20;;;;;;;;;;5052533;28;20200;-59
2022/09/17 14:14:19;;;;;;;4.40;3.08;;;;;;;;;;5052447;28;20513;-58
2022/09/17 14:16:49;;;;;;;5.00;3.35;;;;;;;;;;5051550;28;20288;-59
2022/09/17 14:19:25;;;;;;;6.65;3.70;;;;;;;;;;5053545;28;20260;-59
2022/09/17 14:22:01;;;;;;;4.50;2.83;;;;;;;;;;5050681;28;20518;-59
2022/09/17 14:24:43;;;;;;;5.70;3.47;;;;;;;;;;5052753;28;20188;-59
2022/09/17 14:27:35;;;;;;;4.35;3.33;;;;;;;;;;5050534;28;20613;-59
2022/09/17 14:30:14;;;;;;;4.43;3.22;;;;;;;;;;5051028;28;20210;-58
2022/09/17 14:32:41;;;;;;;5.88;3.42;;;;;;;;;;5054445;28;20192;-59
2022/09/17 14:35:21;;;;;;;3.80;2.97;;;;;;;;;;5054126;28;20204;-60
2022/09/17 14:37:53;;;;;;;6.60;3.45;;;;;;;;;;5050137;28;20613;-60
2022/09/17 14:40:22;;;;;;;5.25;3.03;;;;;;;;;;5051635;28;20233;-60
2022/09/17 14:42:54;;;;;;;5.03;3.75;;;;;;;;;;5047731;28;20236;-60
2022/09/17 14:45:27;;;;;;;4.25;3.83;;;;;;;;;;5051742;28;20224;-61
2022/09/17 14:48:26;;;;;;;7.78;4.32;;;;;;;;;;5052423;28;20243;-60
2022/09/17 14:51:21;;;;;;;4.95;3.70;;;;;;;;;;5052382;28;20228;-60
2022/09/17 14:54:25;;;;;;;6.13;4.13;;;;;;;;;;5051795;28;20235;-59
2022/09/17 14:57:01;;;;;;;5.65;3.65;;;;;;;;;;5033111;28;20227;-60
2022/09/17 14:59:54;;;;;;;6.57;4.03;;;;;;;;;;5032803;28;20240;-59
2022/09/17 15:02:30;;;;;;;7.65;4.65;;;;;;;;;;5031962;28;20755;-59
2022/09/17 15:04:57;;;;;;;5.53;4.50;;;;;;;;;;5032320;28;20235;-60
2022/09/17 15:07:25;;;;;;;9.05;4.78;;;;;;;;;;5032492;28;20711;-60
2022/09/17 15:09:54;;;;;;;5.18;4.28;;;;;;;;;;5052860;28;20693;-61
2022/09/17 15:12:27;;;;;;;5.40;4.20;;;;;;;;;;5052063;28;20227;-60
2022/09/17 15:14:55;;;;;;;5.53;4.43;;;;;;;;;;5050803;28;20226;-60
2022/09/17 15:17:23;;;;;;;7.50;4.65;;;;;;;;;;5051295;28;20230;-61
2022/09/17 15:19:53;;;;;;;5.10;4.00;;;;;;;;;;5047424;28;20556;-59
2022/09/17 15:22:28;;;;;;;3.78;3.30;;;;;;;;;;5051741;28;20306;-59
2022/09/17 15:25:02;;;;;;;3.75;3.45;;;;;;;;;;5051557;28;20314;-60